sensor_id;sensor_type;location;lat;lon;timestamp;P1;durP1;ratioP1;P2;durP2;ratioP2
74510;SDS011;62991;50.040;18.400;2023-07-29T00:02:22;3.92;;;2.35;;
74510;SDS011;62991;50.040;18.400;2023-07-29T00:05:22;4.07;;;2.17;;
74510;SDS011;62991;50.040;18.400;2023-07-29T00:08:23;3.97;;;2.17;;
74510;SDS011;62991;50.040;18.400;2023-07-29T00:11:24;3.58;;;2.10;;
74510;SDS011;62991;50.040;18.400;2023-07-29T00:14:24;3.45;;;1.92;;
74510;SDS011;62991;50.040;18.400;2023-07-29T00:17:25;5.15;;;2.33;;
74510;SDS011;62991;50.040;18.400;2023-07-29T00:20:26;3.10;;;2.03;;
74510;SDS011;62991;50.040;18.400;2023-07-29T00:23:26;4.18;;;2.30;;
74510;SDS011;62991;50.040;18.400;2023-07-29T00:26:27;4.78;;;2.10;;
74510;SDS011;62991;50.040;18.400;2023-07-29T00:29:31;4.35;;;2.40;;
74510;SDS011;62991;50.040;18.400;2023-07-29T00:32:31;4.60;;;2.35;;
74510;SDS011;62991;50.040;18.400;2023-07-29T00:35:33;4.30;;;2.40;;
74510;SDS011;62991;50.040;18.400;2023-07-29T00:38:34;5.80;;;2.30;;
74510;SDS011;62991;50.040;18.400;2023-07-29T00:41:35;3.45;;;2.30;;
74510;SDS011;62991;50.040;18.400;2023-07-29T00:44:35;4.47;;;2.83;;
74510;SDS011;62991;50.040;18.400;2023-07-29T00:47:36;4.57;;;2.70;;
74510;SDS011;62991;50.040;18.400;2023-07-29T00:50:37;10.25;;;2.95;;
74510;SDS011;62991;50.040;18.400;2023-07-29T00:53:38;6.47;;;3.03;;
74510;SDS011;62991;50.040;18.400;2023-07-29T00:56:39;6.10;;;2.72;;
74510;SDS011;62991;50.040;18.400;2023-07-29T00:59:40;5.13;;;2.95;;
74510;SDS011;62991;50.040;18.400;2023-07-29T01:02:44;6.82;;;3.72;;
74510;SDS011;62991;50.040;18.400;2023-07-29T01:15:14;6.18;;;3.60;;
74510;SDS011;62991;50.040;18.400;2023-07-29T01:18:18;6.30;;;3.70;;
74510;SDS011;62991;50.040;18.400;2023-07-29T01:21:25;8.88;;;4.82;;
74510;SDS011;62991;50.040;18.400;2023-07-29T01:24:27;7.28;;;4.10;;
74510;SDS011;62991;50.040;18.400;2023-07-29T01:27:28;5.30;;;3.08;;
74510;SDS011;62991;50.040;18.400;2023-07-29T01:30:30;7.28;;;3.58;;
74510;SDS011;62991;50.040;18.400;2023-07-29T01:33:39;8.73;;;3.60;;
74510;SDS011;62991;50.040;18.400;2023-07-29T01:36:42;6.50;;;3.70;;
74510;SDS011;62991;50.040;18.400;2023-07-29T01:39:46;6.88;;;3.72;;
74510;SDS011;62991;50.040;18.400;2023-07-29T01:42:49;9.25;;;4.32;;
74510;SDS011;62991;50.040;18.400;2023-07-29T01:45:51;6.78;;;3.78;;
74510;SDS011;62991;50.040;18.400;2023-07-29T01:48:52;6.10;;;3.78;;
74510;SDS011;62991;50.040;18.400;2023-07-29T01:51:52;5.43;;;3.35;;
74510;SDS011;62991;50.040;18.400;2023-07-29T01:54:53;7.70;;;3.70;;
74510;SDS011;62991;50.040;18.400;2023-07-29T01:57:53;6.97;;;3.72;;
74510;SDS011;62991;50.040;18.400;2023-07-29T02:00:54;4.88;;;2.90;;
74510;SDS011;62991;50.040;18.400;2023-07-29T02:03:55;6.45;;;3.33;;
74510;SDS011;62991;50.040;18.400;2023-07-29T02:06:55;4.95;;;2.83;;
74510;SDS011;62991;50.040;18.400;2023-07-29T02:09:56;8.68;;;3.58;;
74510;SDS011;62991;50.040;18.400;2023-07-29T02:12:57;6.70;;;3.35;;
74510;SDS011;62991;50.040;18.400;2023-07-29T02:15:57;7.40;;;3.78;;
74510;SDS011;62991;50.040;18.400;2023-07-29T02:18:58;8.15;;;3.55;;
74510;SDS011;62991;50.040;18.400;2023-07-29T02:21:59;9.20;;;3.83;;
74510;SDS011;62991;50.040;18.400;2023-07-29T02:24:59;7.63;;;4.25;;
74510;SDS011;62991;50.040;18.400;2023-07-29T02:28:01;8.15;;;4.28;;
74510;SDS011;62991;50.040;18.400;2023-07-29T02:31:22;9.38;;;5.40;;
74510;SDS011;62991;50.040;18.400;2023-07-29T02:34:24;7.18;;;4.03;;
74510;SDS011;62991;50.040;18.400;2023-07-29T02:37:25;8.68;;;4.40;;
74510;SDS011;62991;50.040;18.400;2023-07-29T02:40:25;8.68;;;4.93;;
74510;SDS011;62991;50.040;18.400;2023-07-29T02:43:26;9.10;;;4.10;;
74510;SDS011;62991;50.040;18.400;2023-07-29T02:46:27;8.35;;;4.30;;
74510;SDS011;62991;50.040;18.400;2023-07-29T02:49:28;7.22;;;4.00;;
74510;SDS011;62991;50.040;18.400;2023-07-29T02:52:28;7.63;;;4.35;;
74510;SDS011;62991;50.040;18.400;2023-07-29T02:55:29;7.68;;;4.18;;
74510;SDS011;62991;50.040;18.400;2023-07-29T02:58:29;7.65;;;3.85;;
74510;SDS011;62991;50.040;18.400;2023-07-29T03:01:30;7.72;;;4.70;;
74510;SDS011;62991;50.040;18.400;2023-07-29T03:04:31;7.20;;;3.67;;
74510;SDS011;62991;50.040;18.400;2023-07-29T03:07:32;8.05;;;4.38;;
74510;SDS011;62991;50.040;18.400;2023-07-29T03:10:34;6.55;;;3.78;;
74510;SDS011;62991;50.040;18.400;2023-07-29T03:13:36;6.03;;;3.70;;
74510;SDS011;62991;50.040;18.400;2023-07-29T03:16:37;6.63;;;3.78;;
74510;SDS011;62991;50.040;18.400;2023-07-29T03:19:38;7.75;;;4.25;;
74510;SDS011;62991;50.040;18.400;2023-07-29T03:22:38;9.55;;;4.50;;
74510;SDS011;62991;50.040;18.400;2023-07-29T03:25:39;10.15;;;4.32;;
74510;SDS011;62991;50.040;18.400;2023-07-29T03:28:40;7.05;;;3.97;;
74510;SDS011;62991;50.040;18.400;2023-07-29T03:31:42;8.35;;;4.00;;
74510;SDS011;62991;50.040;18.400;2023-07-29T03:34:42;7.47;;;4.35;;
74510;SDS011;62991;50.040;18.400;2023-07-29T03:37:43;8.63;;;4.47;;
74510;SDS011;62991;50.040;18.400;2023-07-29T03:40:44;7.68;;;4.40;;
74510;SDS011;62991;50.040;18.400;2023-07-29T03:43:45;11.38;;;6.13;;
74510;SDS011;62991;50.040;18.400;2023-07-29T03:46:45;8.85;;;4.82;;
74510;SDS011;62991;50.040;18.400;2023-07-29T03:49:46;9.73;;;5.57;;
74510;SDS011;62991;50.040;18.400;2023-07-29T03:52:47;13.10;;;5.20;;
74510;SDS011;62991;50.040;18.400;2023-07-29T03:55:48;8.27;;;5.30;;
74510;SDS011;62991;50.040;18.400;2023-07-29T03:58:50;9.02;;;5.05;;
74510;SDS011;62991;50.040;18.400;2023-07-29T04:01:52;10.43;;;5.43;;
74510;SDS011;62991;50.040;18.400;2023-07-29T04:04:52;9.40;;;4.78;;
74510;SDS011;62991;50.040;18.400;2023-07-29T04:07:53;8.25;;;4.07;;
74510;SDS011;62991;50.040;18.400;2023-07-29T04:10:54;8.68;;;3.92;;
74510;SDS011;62991;50.040;18.400;2023-07-29T04:13:55;8.82;;;4.35;;
74510;SDS011;62991;50.040;18.400;2023-07-29T04:16:55;11.00;;;5.63;;
74510;SDS011;62991;50.040;18.400;2023-07-29T04:19:56;9.45;;;5.20;;
74510;SDS011;62991;50.040;18.400;2023-07-29T04:22:57;9.00;;;4.70;;
74510;SDS011;62991;50.040;18.400;2023-07-29T04:25:57;8.32;;;4.40;;
74510;SDS011;62991;50.040;18.400;2023-07-29T04:28:58;7.63;;;4.75;;
74510;SDS011;62991;50.040;18.400;2023-07-29T04:31:59;8.77;;;4.88;;
74510;SDS011;62991;50.040;18.400;2023-07-29T04:35:01;9.75;;;4.40;;
74510;SDS011;62991;50.040;18.400;2023-07-29T04:38:02;6.72;;;4.22;;
74510;SDS011;62991;50.040;18.400;2023-07-29T04:41:02;14.38;;;5.30;;
74510;SDS011;62991;50.040;18.400;2023-07-29T04:44:03;8.18;;;4.40;;
74510;SDS011;62991;50.040;18.400;2023-07-29T04:47:04;8.75;;;4.15;;
74510;SDS011;62991;50.040;18.400;2023-07-29T04:50:05;10.40;;;4.82;;
74510;SDS011;62991;50.040;18.400;2023-07-29T04:53:06;7.60;;;4.45;;
74510;SDS011;62991;50.040;18.400;2023-07-29T04:56:07;9.40;;;4.43;;
74510;SDS011;62991;50.040;18.400;2023-07-29T04:59:07;6.95;;;3.83;;
74510;SDS011;62991;50.040;18.400;2023-07-29T05:02:08;8.40;;;3.55;;
74510;SDS011;62991;50.040;18.400;2023-07-29T05:05:09;8.45;;;3.60;;
74510;SDS011;62991;50.040;18.400;2023-07-29T05:08:09;7.90;;;3.72;;
74510;SDS011;62991;50.040;18.400;2023-07-29T05:11:10;5.32;;;3.25;;
74510;SDS011;62991;50.040;18.400;2023-07-29T05:14:12;7.57;;;3.83;;
74510;SDS011;62991;50.040;18.400;2023-07-29T05:17:13;8.63;;;3.88;;
74510;SDS011;62991;50.040;18.400;2023-07-29T05:20:14;7.07;;;3.58;;
74510;SDS011;62991;50.040;18.400;2023-07-29T05:23:15;5.25;;;3.03;;
74510;SDS011;62991;50.040;18.400;2023-07-29T05:26:15;5.93;;;2.90;;
74510;SDS011;62991;50.040;18.400;2023-07-29T05:29:16;7.28;;;3.15;;
74510;SDS011;62991;50.040;18.400;2023-07-29T05:32:17;6.25;;;3.22;;
74510;SDS011;62991;50.040;18.400;2023-07-29T05:35:17;5.93;;;3.00;;
74510;SDS011;62991;50.040;18.400;2023-07-29T05:38:18;7.03;;;2.67;;
74510;SDS011;62991;50.040;18.400;2023-07-29T05:41:19;6.38;;;3.17;;
74510;SDS011;62991;50.040;18.400;2023-07-29T05:44:19;5.93;;;2.60;;
74510;SDS011;62991;50.040;18.400;2023-07-29T05:47:20;5.35;;;2.60;;
74510;SDS011;62991;50.040;18.400;2023-07-29T05:50:21;7.18;;;3.17;;
74510;SDS011;62991;50.040;18.400;2023-07-29T05:53:21;5.13;;;3.00;;
74510;SDS011;62991;50.040;18.400;2023-07-29T05:56:22;7.35;;;3.60;;
74510;SDS011;62991;50.040;18.400;2023-07-29T05:59:23;7.70;;;3.20;;
74510;SDS011;62991;50.040;18.400;2023-07-29T06:02:23;4.43;;;2.75;;
74510;SDS011;62991;50.040;18.400;2023-07-29T06:05:24;4.18;;;2.17;;
74510;SDS011;62991;50.040;18.400;2023-07-29T06:08:24;7.25;;;2.72;;
74510;SDS011;62991;50.040;18.400;2023-07-29T06:11:28;4.45;;;2.58;;
74510;SDS011;62991;50.040;18.400;2023-07-29T06:14:29;4.68;;;2.17;;
74510;SDS011;62991;50.040;18.400;2023-07-29T06:17:29;4.15;;;2.42;;
74510;SDS011;62991;50.040;18.400;2023-07-29T06:20:30;4.07;;;2.30;;
74510;SDS011;62991;50.040;18.400;2023-07-29T06:23:30;5.10;;;2.00;;
74510;SDS011;62991;50.040;18.400;2023-07-29T06:26:31;6.88;;;2.05;;
74510;SDS011;62991;50.040;18.400;2023-07-29T06:29:32;3.45;;;1.90;;
74510;SDS011;62991;50.040;18.400;2023-07-29T06:32:33;3.33;;;2.08;;
74510;SDS011;62991;50.040;18.400;2023-07-29T06:35:34;3.55;;;2.10;;
74510;SDS011;62991;50.040;18.400;2023-07-29T06:38:35;3.78;;;2.13;;
74510;SDS011;62991;50.040;18.400;2023-07-29T06:41:35;3.67;;;2.10;;
74510;SDS011;62991;50.040;18.400;2023-07-29T06:44:36;4.18;;;2.25;;
74510;SDS011;62991;50.040;18.400;2023-07-29T06:47:37;4.00;;;2.03;;
74510;SDS011;62991;50.040;18.400;2023-07-29T06:50:38;5.25;;;2.80;;
74510;SDS011;62991;50.040;18.400;2023-07-29T06:53:38;4.50;;;1.90;;
74510;SDS011;62991;50.040;18.400;2023-07-29T06:56:39;3.38;;;1.80;;
74510;SDS011;62991;50.040;18.400;2023-07-29T06:59:39;3.25;;;2.03;;
74510;SDS011;62991;50.040;18.400;2023-07-29T07:02:40;3.38;;;1.42;;
74510;SDS011;62991;50.040;18.400;2023-07-29T07:05:41;2.97;;;1.92;;
74510;SDS011;62991;50.040;18.400;2023-07-29T07:08:42;3.97;;;2.00;;
74510;SDS011;62991;50.040;18.400;2023-07-29T07:11:44;5.95;;;3.33;;
74510;SDS011;62991;50.040;18.400;2023-07-29T07:14:44;2.78;;;1.88;;
74510;SDS011;62991;50.040;18.400;2023-07-29T07:17:45;2.88;;;1.80;;
74510;SDS011;62991;50.040;18.400;2023-07-29T07:20:47;3.55;;;1.63;;
74510;SDS011;62991;50.040;18.400;2023-07-29T07:23:49;6.57;;;2.10;;
74510;SDS011;62991;50.040;18.400;2023-07-29T07:26:50;8.45;;;2.60;;
74510;SDS011;62991;50.040;18.400;2023-07-29T07:29:51;2.25;;;1.77;;
74510;SDS011;62991;50.040;18.400;2023-07-29T07:32:52;3.88;;;1.90;;
74510;SDS011;62991;50.040;18.400;2023-07-29T07:35:52;4.82;;;3.08;;
74510;SDS011;62991;50.040;18.400;2023-07-29T07:38:53;4.80;;;2.40;;
74510;SDS011;62991;50.040;18.400;2023-07-29T07:41:53;4.38;;;2.40;;
74510;SDS011;62991;50.040;18.400;2023-07-29T07:44:54;3.22;;;2.10;;
74510;SDS011;62991;50.040;18.400;2023-07-29T07:47:55;6.55;;;2.38;;
74510;SDS011;62991;50.040;18.400;2023-07-29T07:50:56;5.30;;;2.53;;
74510;SDS011;62991;50.040;18.400;2023-07-29T07:53:57;3.40;;;2.28;;
74510;SDS011;62991;50.040;18.400;2023-07-29T07:56:57;4.75;;;2.40;;
74510;SDS011;62991;50.040;18.400;2023-07-29T07:59:58;3.42;;;2.35;;
74510;SDS011;62991;50.040;18.400;2023-07-29T08:02:59;7.20;;;2.60;;
74510;SDS011;62991;50.040;18.400;2023-07-29T08:05:59;4.05;;;2.00;;
74510;SDS011;62991;50.040;18.400;2023-07-29T08:09:00;2.78;;;1.60;;
74510;SDS011;62991;50.040;18.400;2023-07-29T08:12:01;3.22;;;2.25;;
74510;SDS011;62991;50.040;18.400;2023-07-29T08:15:02;2.65;;;1.65;;
74510;SDS011;62991;50.040;18.400;2023-07-29T08:18:03;3.67;;;2.20;;
74510;SDS011;62991;50.040;18.400;2023-07-29T08:21:03;4.28;;;1.90;;
74510;SDS011;62991;50.040;18.400;2023-07-29T08:24:04;3.83;;;2.05;;
74510;SDS011;62991;50.040;18.400;2023-07-29T08:27:06;3.30;;;1.98;;
74510;SDS011;62991;50.040;18.400;2023-07-29T08:30:07;3.25;;;2.10;;
74510;SDS011;62991;50.040;18.400;2023-07-29T08:33:08;6.55;;;2.05;;
74510;SDS011;62991;50.040;18.400;2023-07-29T08:36:09;2.95;;;2.00;;
74510;SDS011;62991;50.040;18.400;2023-07-29T08:39:10;3.53;;;2.30;;
74510;SDS011;62991;50.040;18.400;2023-07-29T08:42:11;3.83;;;2.17;;
74510;SDS011;62991;50.040;18.400;2023-07-29T08:45:12;4.35;;;2.55;;
74510;SDS011;62991;50.040;18.400;2023-07-29T08:48:15;3.72;;;2.10;;
74510;SDS011;62991;50.040;18.400;2023-07-29T08:51:21;5.20;;;2.03;;
74510;SDS011;62991;50.040;18.400;2023-07-29T08:54:23;3.83;;;1.70;;
74510;SDS011;62991;50.040;18.400;2023-07-29T08:57:24;3.83;;;2.08;;
74510;SDS011;62991;50.040;18.400;2023-07-29T09:00:26;3.97;;;1.70;;
74510;SDS011;62991;50.040;18.400;2023-07-29T09:03:27;3.88;;;2.17;;
74510;SDS011;62991;50.040;18.400;2023-07-29T09:06:28;3.70;;;1.85;;
74510;SDS011;62991;50.040;18.400;2023-07-29T09:09:29;4.50;;;1.77;;
74510;SDS011;62991;50.040;18.400;2023-07-29T09:12:29;3.83;;;1.95;;
74510;SDS011;62991;50.040;18.400;2023-07-29T09:15:31;3.17;;;2.25;;
74510;SDS011;62991;50.040;18.400;2023-07-29T09:18:33;3.47;;;1.75;;
74510;SDS011;62991;50.040;18.400;2023-07-29T09:21:34;5.57;;;2.00;;
74510;SDS011;62991;50.040;18.400;2023-07-29T09:24:39;4.68;;;2.50;;
74510;SDS011;62991;50.040;18.400;2023-07-29T09:27:40;4.28;;;1.95;;
74510;SDS011;62991;50.040;18.400;2023-07-29T09:30:42;3.85;;;2.08;;
74510;SDS011;62991;50.040;18.400;2023-07-29T09:33:44;3.42;;;1.92;;
74510;SDS011;62991;50.040;18.400;2023-07-29T09:36:45;5.20;;;2.08;;
74510;SDS011;62991;50.040;18.400;2023-07-29T09:39:46;3.63;;;2.22;;
74510;SDS011;62991;50.040;18.400;2023-07-29T09:42:51;4.22;;;2.25;;
74510;SDS011;62991;50.040;18.400;2023-07-29T09:45:52;3.88;;;1.92;;
74510;SDS011;62991;50.040;18.400;2023-07-29T09:48:54;6.63;;;2.40;;
74510;SDS011;62991;50.040;18.400;2023-07-29T09:51:55;4.18;;;2.20;;
74510;SDS011;62991;50.040;18.400;2023-07-29T09:54:56;3.10;;;1.80;;
74510;SDS011;62991;50.040;18.400;2023-07-29T09:57:57;4.93;;;2.40;;
74510;SDS011;62991;50.040;18.400;2023-07-29T10:01:04;2.00;;;1.55;;
74510;SDS011;62991;50.040;18.400;2023-07-29T10:04:06;3.22;;;1.67;;
74510;SDS011;62991;50.040;18.400;2023-07-29T10:07:09;3.08;;;2.10;;
74510;SDS011;62991;50.040;18.400;2023-07-29T10:10:10;4.88;;;2.05;;
74510;SDS011;62991;50.040;18.400;2023-07-29T10:13:12;2.97;;;2.00;;
74510;SDS011;62991;50.040;18.400;2023-07-29T10:16:13;5.18;;;2.05;;
74510;SDS011;62991;50.040;18.400;2023-07-29T10:19:14;3.10;;;1.83;;
74510;SDS011;62991;50.040;18.400;2023-07-29T10:22:19;4.75;;;2.03;;
74510;SDS011;62991;50.040;18.400;2023-07-29T10:25:22;3.30;;;1.98;;
74510;SDS011;62991;50.040;18.400;2023-07-29T10:28:25;3.45;;;1.80;;
74510;SDS011;62991;50.040;18.400;2023-07-29T10:31:28;3.95;;;2.33;;
74510;SDS011;62991;50.040;18.400;2023-07-29T10:34:30;3.80;;;2.38;;
74510;SDS011;62991;50.040;18.400;2023-07-29T10:37:31;2.83;;;1.83;;
74510;SDS011;62991;50.040;18.400;2023-07-29T10:40:46;2.58;;;1.75;;
74510;SDS011;62991;50.040;18.400;2023-07-29T10:43:48;3.25;;;2.05;;
74510;SDS011;62991;50.040;18.400;2023-07-29T10:46:49;2.80;;;1.65;;
74510;SDS011;62991;50.040;18.400;2023-07-29T10:49:50;2.78;;;1.88;;
74510;SDS011;62991;50.040;18.400;2023-07-29T10:52:56;3.50;;;1.70;;
74510;SDS011;62991;50.040;18.400;2023-07-29T10:55:56;2.53;;;1.73;;
74510;SDS011;62991;50.040;18.400;2023-07-29T10:58:58;3.90;;;1.77;;
74510;SDS011;62991;50.040;18.400;2023-07-29T11:02:19;3.42;;;1.80;;
74510;SDS011;62991;50.040;18.400;2023-07-29T11:05:20;3.45;;;1.73;;
74510;SDS011;62991;50.040;18.400;2023-07-29T11:11:22;4.45;;;2.15;;
74510;SDS011;62991;50.040;18.400;2023-07-29T11:14:23;2.28;;;1.35;;
74510;SDS011;62991;50.040;18.400;2023-07-29T11:17:24;2.05;;;1.10;;
74510;SDS011;62991;50.040;18.400;2023-07-29T11:20:26;2.70;;;1.40;;
74510;SDS011;62991;50.040;18.400;2023-07-29T11:23:33;2.13;;;1.20;;
74510;SDS011;62991;50.040;18.400;2023-07-29T11:26:36;2.35;;;1.40;;
74510;SDS011;62991;50.040;18.400;2023-07-29T11:29:37;2.22;;;1.30;;
74510;SDS011;62991;50.040;18.400;2023-07-29T11:32:39;1.90;;;1.10;;
74510;SDS011;62991;50.040;18.400;2023-07-29T11:35:41;2.30;;;1.20;;
74510;SDS011;62991;50.040;18.400;2023-07-29T11:38:41;1.92;;;1.10;;
74510;SDS011;62991;50.040;18.400;2023-07-29T11:41:42;2.75;;;1.48;;
74510;SDS011;62991;50.040;18.400;2023-07-29T11:44:43;3.53;;;1.17;;
74510;SDS011;62991;50.040;18.400;2023-07-29T11:47:43;1.95;;;1.30;;
74510;SDS011;62991;50.040;18.400;2023-07-29T11:50:45;2.15;;;1.10;;
74510;SDS011;62991;50.040;18.400;2023-07-29T11:53:46;3.53;;;1.52;;
74510;SDS011;62991;50.040;18.400;2023-07-29T11:56:47;1.98;;;1.13;;
74510;SDS011;62991;50.040;18.400;2023-07-29T11:59:48;2.80;;;1.55;;
74510;SDS011;62991;50.040;18.400;2023-07-29T12:02:49;1.45;;;1.00;;
74510;SDS011;62991;50.040;18.400;2023-07-29T12:05:50;1.75;;;1.08;;
74510;SDS011;62991;50.040;18.400;2023-07-29T12:08:51;2.80;;;1.02;;
74510;SDS011;62991;50.040;18.400;2023-07-29T12:11:52;2.17;;;1.17;;
74510;SDS011;62991;50.040;18.400;2023-07-29T12:14:53;2.10;;;1.13;;
74510;SDS011;62991;50.040;18.400;2023-07-29T12:17:58;1.90;;;1.00;;
74510;SDS011;62991;50.040;18.400;2023-07-29T12:20:59;1.80;;;1.00;;
74510;SDS011;62991;50.040;18.400;2023-07-29T12:24:02;1.45;;;0.93;;
74510;SDS011;62991;50.040;18.400;2023-07-29T12:27:03;2.55;;;1.15;;
74510;SDS011;62991;50.040;18.400;2023-07-29T12:30:04;2.50;;;1.27;;
74510;SDS011;62991;50.040;18.400;2023-07-29T12:33:05;2.60;;;1.20;;
74510;SDS011;62991;50.040;18.400;2023-07-29T12:36:06;2.50;;;1.02;;
74510;SDS011;62991;50.040;18.400;2023-07-29T12:39:15;1.38;;;0.95;;
74510;SDS011;62991;50.040;18.400;2023-07-29T12:42:19;2.10;;;1.30;;
74510;SDS011;62991;50.040;18.400;2023-07-29T12:45:20;2.00;;;1.33;;
74510;SDS011;62991;50.040;18.400;2023-07-29T12:48:26;1.92;;;1.27;;
74510;SDS011;62991;50.040;18.400;2023-07-29T12:51:27;2.00;;;1.13;;
74510;SDS011;62991;50.040;18.400;2023-07-29T12:54:28;3.90;;;1.27;;
74510;SDS011;62991;50.040;18.400;2023-07-29T12:57:29;2.42;;;1.45;;
74510;SDS011;62991;50.040;18.400;2023-07-29T13:00:29;2.10;;;1.30;;
74510;SDS011;62991;50.040;18.400;2023-07-29T13:03:30;2.20;;;1.10;;
74510;SDS011;62991;50.040;18.400;2023-07-29T13:06:31;1.80;;;1.20;;
74510;SDS011;62991;50.040;18.400;2023-07-29T13:09:31;1.88;;;1.20;;
74510;SDS011;62991;50.040;18.400;2023-07-29T13:12:32;3.25;;;1.45;;
74510;SDS011;62991;50.040;18.400;2023-07-29T13:15:33;2.17;;;1.20;;
74510;SDS011;62991;50.040;18.400;2023-07-29T13:18:33;1.70;;;1.25;;
74510;SDS011;62991;50.040;18.400;2023-07-29T13:21:34;2.03;;;1.20;;
74510;SDS011;62991;50.040;18.400;2023-07-29T13:24:35;2.22;;;1.25;;
74510;SDS011;62991;50.040;18.400;2023-07-29T13:27:35;2.50;;;1.17;;
74510;SDS011;62991;50.040;18.400;2023-07-29T13:30:36;3.42;;;1.20;;
74510;SDS011;62991;50.040;18.400;2023-07-29T13:33:37;4.07;;;1.30;;
74510;SDS011;62991;50.040;18.400;2023-07-29T13:36:37;2.10;;;1.30;;
74510;SDS011;62991;50.040;18.400;2023-07-29T13:39:38;1.83;;;1.00;;
74510;SDS011;62991;50.040;18.400;2023-07-29T13:42:39;2.63;;;1.33;;
74510;SDS011;62991;50.040;18.400;2023-07-29T13:45:39;2.20;;;1.42;;
74510;SDS011;62991;50.040;18.400;2023-07-29T13:48:40;1.90;;;1.20;;
74510;SDS011;62991;50.040;18.400;2023-07-29T13:51:41;2.72;;;1.25;;
74510;SDS011;62991;50.040;18.400;2023-07-29T13:54:42;2.22;;;1.20;;
74510;SDS011;62991;50.040;18.400;2023-07-29T13:57:43;2.42;;;1.20;;
74510;SDS011;62991;50.040;18.400;2023-07-29T14:00:44;1.45;;;0.95;;
74510;SDS011;62991;50.040;18.400;2023-07-29T14:03:44;1.73;;;1.10;;
74510;SDS011;62991;50.040;18.400;2023-07-29T14:06:45;2.60;;;1.30;;
74510;SDS011;62991;50.040;18.400;2023-07-29T14:09:45;1.95;;;1.20;;
74510;SDS011;62991;50.040;18.400;2023-07-29T14:12:47;3.05;;;1.20;;
74510;SDS011;62991;50.040;18.400;2023-07-29T14:15:47;1.88;;;1.20;;
74510;SDS011;62991;50.040;18.400;2023-07-29T14:18:48;1.63;;;1.10;;
74510;SDS011;62991;50.040;18.400;2023-07-29T14:21:48;1.85;;;1.08;;
74510;SDS011;62991;50.040;18.400;2023-07-29T14:24:49;2.10;;;1.30;;
74510;SDS011;62991;50.040;18.400;2023-07-29T14:27:50;4.00;;;2.45;;
74510;SDS011;62991;50.040;18.400;2023-07-29T14:30:50;6.70;;;1.90;;
74510;SDS011;62991;50.040;18.400;2023-07-29T14:33:51;1.95;;;1.40;;
74510;SDS011;62991;50.040;18.400;2023-07-29T14:36:52;5.57;;;1.20;;
74510;SDS011;62991;50.040;18.400;2023-07-29T14:39:52;2.38;;;1.25;;
74510;SDS011;62991;50.040;18.400;2023-07-29T14:42:53;1.65;;;1.13;;
74510;SDS011;62991;50.040;18.400;2023-07-29T14:45:54;3.17;;;1.35;;
74510;SDS011;62991;50.040;18.400;2023-07-29T14:48:55;1.95;;;1.30;;
74510;SDS011;62991;50.040;18.400;2023-07-29T14:51:55;1.60;;;1.30;;
74510;SDS011;62991;50.040;18.400;2023-07-29T14:54:56;2.00;;;1.38;;
74510;SDS011;62991;50.040;18.400;2023-07-29T14:57:57;2.38;;;1.30;;
74510;SDS011;62991;50.040;18.400;2023-07-29T15:00:57;2.30;;;1.27;;
74510;SDS011;62991;50.040;18.400;2023-07-29T15:03:58;1.98;;;1.23;;
74510;SDS011;62991;50.040;18.400;2023-07-29T15:06:58;1.98;;;1.23;;
74510;SDS011;62991;50.040;18.400;2023-07-29T15:10:00;2.65;;;1.38;;
74510;SDS011;62991;50.040;18.400;2023-07-29T15:13:00;4.22;;;2.08;;
74510;SDS011;62991;50.040;18.400;2023-07-29T15:16:02;3.20;;;1.98;;
74510;SDS011;62991;50.040;18.400;2023-07-29T15:19:03;3.03;;;0.98;;
74510;SDS011;62991;50.040;18.400;2023-07-29T15:22:06;2.45;;;1.42;;
74510;SDS011;62991;50.040;18.400;2023-07-29T15:25:08;2.17;;;1.20;;
74510;SDS011;62991;50.040;18.400;2023-07-29T15:28:09;4.28;;;2.50;;
74510;SDS011;62991;50.040;18.400;2023-07-29T15:31:10;4.25;;;2.58;;
74510;SDS011;62991;50.040;18.400;2023-07-29T15:34:13;2.47;;;1.50;;
74510;SDS011;62991;50.040;18.400;2023-07-29T15:37:13;2.20;;;1.20;;
74510;SDS011;62991;50.040;18.400;2023-07-29T15:40:14;2.08;;;1.08;;
74510;SDS011;62991;50.040;18.400;2023-07-29T15:43:15;2.22;;;1.20;;
74510;SDS011;62991;50.040;18.400;2023-07-29T15:46:15;2.22;;;1.40;;
74510;SDS011;62991;50.040;18.400;2023-07-29T15:49:16;2.72;;;1.67;;
74510;SDS011;62991;50.040;18.400;2023-07-29T15:52:17;8.02;;;3.22;;
74510;SDS011;62991;50.040;18.400;2023-07-29T15:55:18;4.63;;;2.30;;
74510;SDS011;62991;50.040;18.400;2023-07-29T15:58:18;3.85;;;1.63;;
74510;SDS011;62991;50.040;18.400;2023-07-29T16:01:19;4.32;;;1.60;;
74510;SDS011;62991;50.040;18.400;2023-07-29T16:04:21;2.60;;;1.30;;
74510;SDS011;62991;50.040;18.400;2023-07-29T16:07:21;2.08;;;1.20;;
74510;SDS011;62991;50.040;18.400;2023-07-29T16:10:22;0.65;;;0.50;;
74510;SDS011;62991;50.040;18.400;2023-07-29T16:13:23;1.25;;;0.60;;
74510;SDS011;62991;50.040;18.400;2023-07-29T16:16:24;1.17;;;0.68;;
74510;SDS011;62991;50.040;18.400;2023-07-29T16:19:25;0.90;;;0.50;;
74510;SDS011;62991;50.040;18.400;2023-07-29T16:22:29;0.73;;;0.50;;
74510;SDS011;62991;50.040;18.400;2023-07-29T16:25:30;3.92;;;0.95;;
74510;SDS011;62991;50.040;18.400;2023-07-29T16:28:30;1.90;;;1.13;;
74510;SDS011;62991;50.040;18.400;2023-07-29T16:31:31;5.00;;;2.38;;
74510;SDS011;62991;50.040;18.400;2023-07-29T16:34:31;1.55;;;0.98;;
74510;SDS011;62991;50.040;18.400;2023-07-29T16:37:32;1.70;;;0.70;;
74510;SDS011;62991;50.040;18.400;2023-07-29T16:40:33;4.30;;;0.90;;
74510;SDS011;62991;50.040;18.400;2023-07-29T16:43:34;2.08;;;0.90;;
74510;SDS011;62991;50.040;18.400;2023-07-29T16:46:34;1.63;;;0.85;;
74510;SDS011;62991;50.040;18.400;2023-07-29T16:49:38;1.65;;;0.90;;
74510;SDS011;62991;50.040;18.400;2023-07-29T16:52:39;2.28;;;0.90;;
74510;SDS011;62991;50.040;18.400;2023-07-29T16:55:39;1.85;;;1.00;;
74510;SDS011;62991;50.040;18.400;2023-07-29T16:58:41;2.08;;;1.13;;
74510;SDS011;62991;50.040;18.400;2023-07-29T17:01:42;4.47;;;1.42;;
74510;SDS011;62991;50.040;18.400;2023-07-29T17:04:43;0.95;;;0.57;;
74510;SDS011;62991;50.040;18.400;2023-07-29T17:07:43;1.88;;;0.90;;
74510;SDS011;62991;50.040;18.400;2023-07-29T17:10:44;6.78;;;1.30;;
74510;SDS011;62991;50.040;18.400;2023-07-29T17:13:45;3.97;;;1.55;;
74510;SDS011;62991;50.040;18.400;2023-07-29T17:16:45;2.65;;;1.00;;
74510;SDS011;62991;50.040;18.400;2023-07-29T17:19:46;3.65;;;1.05;;
74510;SDS011;62991;50.040;18.400;2023-07-29T17:22:47;4.15;;;1.30;;
74510;SDS011;62991;50.040;18.400;2023-07-29T17:25:48;3.33;;;1.10;;
74510;SDS011;62991;50.040;18.400;2023-07-29T17:28:48;2.13;;;0.77;;
74510;SDS011;62991;50.040;18.400;2023-07-29T17:31:49;1.20;;;0.65;;
74510;SDS011;62991;50.040;18.400;2023-07-29T17:34:50;2.35;;;0.80;;
74510;SDS011;62991;50.040;18.400;2023-07-29T17:37:50;1.30;;;0.90;;
74510;SDS011;62991;50.040;18.400;2023-07-29T17:41:01;2.95;;;1.23;;
74510;SDS011;62991;50.040;18.400;2023-07-29T17:44:02;2.58;;;0.90;;
74510;SDS011;62991;50.040;18.400;2023-07-29T17:47:03;2.20;;;1.00;;
74510;SDS011;62991;50.040;18.400;2023-07-29T17:50:04;2.90;;;0.90;;
74510;SDS011;62991;50.040;18.400;2023-07-29T17:53:05;2.88;;;1.45;;
74510;SDS011;62991;50.040;18.400;2023-07-29T17:56:06;1.83;;;0.98;;
74510;SDS011;62991;50.040;18.400;2023-07-29T17:59:10;3.10;;;1.23;;
74510;SDS011;62991;50.040;18.400;2023-07-29T18:02:11;3.85;;;1.42;;
74510;SDS011;62991;50.040;18.400;2023-07-29T18:05:11;2.88;;;1.35;;
74510;SDS011;62991;50.040;18.400;2023-07-29T18:08:12;3.05;;;1.70;;